createdAt,value
2023-05-07T00:00:54.252Z,0.00
2023-05-07T00:01:53.766Z,0.00
2023-05-07T00:02:54.431Z,0.00
2023-05-07T00:03:54.073Z,0.00
2023-05-07T00:04:54.396Z,0.00
2023-05-07T00:06:54.312Z,0.00
2023-05-07T00:09:53.892Z,0.00
2023-05-07T00:11:53.853Z,0.00
2023-05-07T00:12:54.102Z,0.00
2023-05-07T00:17:54.044Z,0.00
2023-05-07T00:18:54.067Z,0.00
2023-05-07T00:19:54.062Z,0.00
2023-05-07T00:20:54.180Z,0.00
2023-05-07T00:21:54.121Z,0.00
2023-05-07T00:22:54.151Z,0.00
2023-05-07T00:23:54.180Z,0.00
2023-05-07T00:24:54.206Z,0.00
2023-05-07T00:25:54.328Z,0.00
2023-05-07T00:26:54.266Z,0.00
2023-05-07T00:27:54.293Z,0.00
2023-05-07T00:28:54.324Z,0.00
2023-05-07T00:29:54.354Z,0.00
2023-05-07T00:30:54.381Z,0.00
2023-05-07T00:31:54.459Z,0.00
2023-05-07T00:32:54.469Z,0.00
2023-05-07T00:33:54.466Z,0.00
2023-05-07T00:34:54.517Z,0.00
2023-05-07T00:35:54.523Z,0.00
2023-05-07T00:36:54.561Z,0.00
2023-05-07T00:37:54.578Z,0.00
2023-05-07T00:38:54.611Z,0.00
2023-05-07T00:39:54.645Z,0.00
2023-05-07T00:40:54.672Z,0.00
2023-05-07T00:41:54.817Z,0.00
2023-05-07T00:42:54.731Z,0.00
2023-05-07T00:43:54.755Z,0.00
2023-05-07T00:44:54.781Z,0.00
2023-05-07T00:45:54.817Z,0.00
2023-05-07T00:46:54.842Z,0.00
2023-05-07T00:47:54.914Z,0.00
2023-05-07T00:48:54.898Z,0.00
2023-05-07T00:49:54.925Z,0.00
2023-05-07T00:50:54.954Z,0.00
2023-05-07T00:51:54.979Z,0.00
2023-05-07T00:52:55.018Z,0.00
2023-05-07T00:53:55.039Z,0.00
2023-05-07T00:54:55.071Z,0.00
2023-05-07T00:55:55.093Z,0.00
2023-05-07T00:56:55.122Z,0.00
2023-05-07T00:57:55.255Z,0.00
2023-05-07T00:58:55.215Z,0.00
2023-05-07T00:59:55.212Z,0.00
2023-05-07T01:00:55.284Z,0.00
2023-05-07T01:01:55.265Z,0.00
2023-05-07T01:02:55.343Z,0.00
2023-05-07T01:03:55.360Z,0.00
2023-05-07T01:04:55.354Z,0.00
2023-05-07T01:05:55.378Z,0.00
2023-05-07T01:06:55.414Z,0.00
2023-05-07T01:07:55.438Z,0.00
2023-05-07T01:08:55.468Z,0.00
2023-05-07T01:09:55.501Z,0.00
2023-05-07T01:10:55.528Z,0.00
2023-05-07T01:11:55.555Z,0.00
2023-05-07T01:12:55.630Z,0.00
2023-05-07T01:13:55.704Z,0.00
2023-05-07T01:14:55.641Z,0.00
2023-05-07T01:15:55.675Z,0.00
2023-05-07T01:16:55.715Z,0.00
2023-05-07T01:17:55.795Z,0.00
2023-05-07T01:18:55.756Z,0.00
2023-05-07T01:19:55.791Z,0.00
2023-05-07T01:20:55.820Z,0.00
2023-05-07T01:21:55.837Z,0.00
2023-05-07T01:22:55.869Z,0.00
2023-05-07T01:23:55.910Z,0.00
2023-05-07T01:24:55.928Z,0.00
2023-05-07T01:25:55.960Z,0.00
2023-05-07T01:26:55.995Z,0.00
2023-05-07T01:27:56.017Z,0.00
2023-05-07T01:28:56.039Z,0.00
2023-05-07T01:29:56.156Z,0.00
2023-05-07T01:31:56.188Z,0.00
2023-05-07T01:32:56.195Z,0.00
2023-05-07T01:33:56.190Z,0.00
2023-05-07T01:34:56.211Z,0.00
2023-05-07T01:35:56.240Z,0.00
2023-05-07T01:36:56.278Z,0.00
2023-05-07T01:37:56.308Z,0.00
2023-05-07T01:38:56.326Z,0.00
2023-05-07T01:39:56.358Z,0.00
2023-05-07T01:40:56.581Z,0.00
2023-05-07T01:41:56.425Z,0.00
2023-05-07T01:42:56.435Z,0.00
2023-05-07T01:43:56.483Z,0.00
2023-05-07T01:44:56.494Z,0.00
2023-05-07T01:45:56.657Z,0.00
2023-05-07T01:46:56.560Z,0.00
2023-05-07T01:47:56.682Z,0.00
2023-05-07T01:48:56.620Z,0.00
2023-05-07T01:49:56.654Z,0.00
2023-05-07T01:50:56.662Z,0.00
2023-05-07T01:51:56.696Z,0.00
2023-05-07T01:52:56.722Z,0.00
2023-05-07T01:53:56.750Z,0.00
2023-05-07T01:54:56.778Z,0.00
2023-05-07T01:55:56.823Z,0.00
2023-05-07T01:56:56.835Z,0.00
2023-05-07T01:57:56.863Z,0.00
2023-05-07T01:58:56.899Z,0.00
2023-05-07T01:59:56.923Z,0.00
2023-05-07T02:00:56.956Z,0.00
2023-05-07T02:01:57.347Z,0.00
2023-05-07T02:02:57.078Z,0.00
2023-05-07T02:03:57.171Z,0.00
2023-05-07T02:05:57.115Z,0.00
2023-05-07T02:06:57.122Z,0.00
2023-05-07T02:07:57.156Z,0.00
2023-05-07T02:08:57.182Z,0.00
2023-05-07T02:09:57.217Z,0.00
2023-05-07T02:10:57.244Z,0.00
2023-05-07T02:11:57.262Z,0.00
2023-05-07T02:12:57.305Z,0.00
2023-05-07T02:13:57.319Z,0.00
2023-05-07T02:14:57.348Z,0.00
2023-05-07T02:15:57.389Z,0.00
2023-05-07T02:16:57.469Z,0.00
2023-05-07T02:17:57.550Z,0.00
2023-05-07T02:18:57.465Z,0.00
2023-05-07T02:19:57.490Z,0.00
2023-05-07T02:20:57.519Z,0.00
2023-05-07T02:21:57.549Z,0.00
2023-05-07T02:22:57.580Z,0.00
2023-05-07T02:23:57.603Z,0.00
2023-05-07T02:24:57.634Z,0.00
2023-05-07T02:25:57.661Z,0.00
2023-05-07T02:26:57.693Z,0.00
2023-05-07T02:27:57.717Z,0.00
2023-05-07T02:28:57.755Z,0.00
2023-05-07T02:29:57.777Z,0.00
2023-05-07T02:30:57.857Z,0.00
2023-05-07T02:31:57.898Z,0.00
2023-05-07T02:32:57.887Z,0.00
2023-05-07T02:33:57.983Z,0.00
2023-05-07T02:34:57.918Z,0.00
2023-05-07T02:35:57.944Z,0.00
2023-05-07T02:36:57.973Z,0.00
2023-05-07T02:37:58.000Z,0.00
2023-05-07T02:38:58.040Z,0.00
2023-05-07T02:39:58.056Z,0.00
2023-05-07T02:40:58.239Z,0.00
2023-05-07T02:41:58.112Z,0.00
2023-05-07T02:42:58.142Z,0.00
2023-05-07T02:43:58.178Z,0.00
2023-05-07T02:44:58.201Z,0.00
2023-05-07T02:45:58.276Z,0.00
2023-05-07T02:46:58.254Z,0.00
2023-05-07T02:47:58.351Z,0.00
2023-05-07T02:48:58.311Z,0.00
2023-05-07T02:50:01.054Z,0.00
2023-05-07T02:50:58.381Z,0.00
2023-05-07T02:51:58.393Z,0.00
2023-05-07T02:52:58.421Z,0.00
2023-05-07T02:53:58.468Z,0.00
2023-05-07T02:54:58.489Z,0.00
2023-05-07T02:55:58.506Z,0.00
2023-05-07T02:56:58.535Z,0.00
2023-05-07T02:57:58.570Z,0.00
2023-05-07T02:58:58.592Z,0.00
2023-05-07T02:59:58.618Z,0.00
2023-05-07T03:00:58.729Z,0.00
2023-05-07T03:01:58.682Z,0.00
2023-05-07T03:02:58.751Z,0.00
2023-05-07T03:03:58.765Z,0.00
2023-05-07T03:04:58.766Z,0.00
2023-05-07T03:05:58.876Z,0.00
2023-05-07T03:06:58.826Z,0.00
2023-05-07T03:07:58.848Z,0.00
2023-05-07T03:08:58.876Z,0.00
2023-05-07T03:09:58.899Z,0.00
2023-05-07T03:10:58.929Z,0.00
2023-05-07T03:11:58.956Z,0.00
2023-05-07T03:12:59.044Z,0.00
2023-05-07T03:13:59.013Z,0.00
2023-05-07T03:14:59.060Z,0.00
2023-05-07T03:15:59.096Z,0.00
2023-05-07T03:17:59.178Z,0.00
2023-05-07T03:18:59.254Z,0.00
2023-05-07T03:20:59.494Z,0.00
2023-05-07T03:21:59.253Z,4.00
2023-05-07T03:22:59.258Z,4.00
2023-05-07T03:23:59.294Z,0.00
2023-05-07T03:24:59.315Z,0.00
2023-05-07T03:25:59.344Z,4.00
2023-05-07T03:26:59.376Z,4.00
2023-05-07T03:27:59.397Z,8.00
2023-05-07T03:28:59.438Z,4.00
2023-05-07T03:29:59.498Z,8.00
2023-05-07T03:30:59.505Z,4.00
2023-05-07T03:31:59.510Z,8.00
2023-05-07T03:32:59.594Z,8.00
2023-05-07T03:33:59.577Z,8.00
2023-05-07T03:34:59.599Z,12.00
2023-05-07T03:35:59.620Z,16.00
2023-05-07T03:36:59.653Z,16.00
2023-05-07T03:37:59.767Z,16.00
2023-05-07T03:38:59.706Z,20.00
2023-05-07T03:39:59.735Z,28.00
2023-05-07T03:40:59.760Z,32.00
2023-05-07T03:41:59.803Z,40.00
2023-05-07T03:42:59.823Z,44.00
2023-05-07T03:43:59.853Z,52.00
2023-05-07T03:44:59.878Z,60.00
2023-05-07T03:46:42.494Z,76.00
2023-05-07T03:47:42.523Z,84.00
2023-05-07T03:48:42.524Z,88.00
2023-05-07T03:49:42.534Z,104.00
2023-05-07T03:50:42.560Z,112.00
2023-05-07T03:51:42.588Z,124.00
2023-05-07T03:52:42.623Z,140.00
2023-05-07T03:53:42.745Z,152.00
2023-05-07T03:54:42.674Z,168.00
2023-05-07T03:55:42.704Z,188.00
2023-05-07T03:56:42.731Z,212.00
2023-05-07T03:57:42.756Z,232.00
2023-05-07T03:58:42.787Z,256.00
2023-05-07T03:59:42.817Z,284.00
2023-05-07T04:00:42.842Z,300.00
2023-05-07T04:01:42.992Z,320.00
2023-05-07T04:02:43.082Z,340.00
2023-05-07T04:03:43.011Z,356.00
2023-05-07T04:04:42.978Z,376.00
2023-05-07T04:05:43.006Z,404.00
2023-05-07T04:07:50.861Z,472.00
2023-05-07T04:08:50.989Z,512.00
2023-05-07T04:09:50.927Z,544.00
2023-05-07T04:10:50.948Z,580.00
2023-05-07T04:11:50.975Z,624.00
2023-05-07T04:12:51.005Z,668.00
2023-05-07T04:13:51.038Z,724.00
2023-05-07T04:14:51.052Z,776.00
2023-05-07T04:15:51.081Z,828.00
2023-05-07T04:16:51.132Z,876.00
2023-05-07T04:17:51.193Z,916.00
2023-05-07T04:18:51.169Z,928.00
2023-05-07T04:19:51.191Z,916.00
2023-05-07T04:20:51.221Z,912.00
2023-05-07T04:21:51.250Z,928.00
2023-05-07T04:22:51.278Z,944.00
2023-05-07T04:23:51.314Z,956.00
2023-05-07T04:24:51.429Z,952.00
2023-05-07T04:25:51.357Z,968.00
2023-05-07T04:26:51.391Z,1016.00
2023-05-07T04:27:51.424Z,1076.00
2023-05-07T04:28:51.447Z,1124.00
2023-05-07T04:29:51.489Z,1160.00
2023-05-07T04:30:51.504Z,1200.00
2023-05-07T04:31:51.609Z,1284.00
2023-05-07T04:32:51.619Z,1352.00
2023-05-07T04:33:51.597Z,1360.00
2023-05-07T04:34:51.621Z,1324.00
2023-05-07T04:35:51.644Z,1320.00
2023-05-07T04:36:51.679Z,1368.00
2023-05-07T04:37:51.694Z,1440.00
2023-05-07T04:38:51.731Z,1484.00
2023-05-07T04:39:51.751Z,1476.00
2023-05-07T04:40:52.398Z,1460.00
2023-05-07T04:41:51.804Z,1436.00
2023-05-07T04:42:51.835Z,1432.00
2023-05-07T04:43:51.861Z,1416.00
2023-05-07T04:44:51.890Z,1328.00
2023-05-07T04:45:52.861Z,1328.00
2023-05-07T04:46:51.950Z,1364.00
2023-05-07T04:47:52.008Z,1432.00
2023-05-07T04:48:52.002Z,1524.00
2023-05-07T04:49:52.027Z,1624.00
2023-05-07T04:50:52.067Z,1740.00
2023-05-07T04:51:52.083Z,1876.00
2023-05-07T04:52:52.136Z,2044.00
2023-05-07T04:53:52.138Z,2236.00
2023-05-07T04:54:52.168Z,2424.00
2023-05-07T04:55:52.194Z,2592.00
2023-05-07T04:56:52.246Z,2720.00
2023-05-07T04:57:52.254Z,2792.00
2023-05-07T04:58:52.296Z,2820.00
2023-05-07T04:59:52.315Z,2804.00
2023-05-07T05:00:52.351Z,2784.00
2023-05-07T05:01:52.495Z,2788.00
2023-05-07T05:02:52.439Z,2924.00
2023-05-07T05:03:52.498Z,2848.00
2023-05-07T05:04:52.471Z,2908.00
2023-05-07T05:05:52.497Z,2948.00
2023-05-07T05:06:52.512Z,3000.00
2023-05-07T05:07:52.555Z,3096.00
2023-05-07T05:08:52.590Z,3240.00
2023-05-07T05:09:52.597Z,3404.00
2023-05-07T05:10:52.633Z,3404.00
2023-05-07T05:11:52.664Z,3556.00
2023-05-07T05:12:52.835Z,3736.00
2023-05-07T05:13:52.720Z,3952.00
2023-05-07T05:14:52.760Z,4192.00
2023-05-07T05:15:52.785Z,4396.00
2023-05-07T05:16:52.803Z,4564.00
2023-05-07T05:17:52.902Z,4692.00
2023-05-07T05:18:52.896Z,4772.00
2023-05-07T05:19:52.889Z,4800.00
2023-05-07T05:20:52.921Z,4764.00
2023-05-07T05:21:52.945Z,4700.00
2023-05-07T05:22:52.992Z,4640.00
2023-05-07T05:23:53.012Z,4612.00
2023-05-07T05:24:53.035Z,4592.00
2023-05-07T05:25:53.059Z,4576.00
2023-05-07T05:26:53.100Z,4540.00
2023-05-07T05:27:53.119Z,4532.00
2023-05-07T05:28:53.240Z,4556.00
2023-05-07T05:29:53.175Z,4628.00
2023-05-07T05:30:53.216Z,4740.00
2023-05-07T05:31:53.315Z,4888.00
2023-05-07T05:32:53.312Z,5060.00
2023-05-07T05:33:53.292Z,5212.00
2023-05-07T05:34:53.325Z,5364.00
2023-05-07T05:35:53.351Z,5508.00
2023-05-07T05:36:53.385Z,5668.00
2023-05-07T05:37:53.425Z,5856.00
2023-05-07T05:38:53.443Z,6052.00
2023-05-07T05:39:53.470Z,6228.00
2023-05-07T05:40:55.423Z,6368.00
2023-05-07T05:41:53.524Z,6528.00
2023-05-07T05:42:53.558Z,6656.00
2023-05-07T05:43:53.594Z,6764.00
2023-05-07T05:44:53.723Z,6784.00
2023-05-07T05:45:53.655Z,6628.00
2023-05-07T05:46:53.779Z,6288.00
2023-05-07T05:47:53.730Z,5956.00
2023-05-07T05:48:53.734Z,5672.00
2023-05-07T05:49:53.760Z,5308.00
2023-05-07T05:50:53.792Z,4940.00
2023-05-07T05:51:53.819Z,4648.00
2023-05-07T05:52:53.857Z,4428.00
2023-05-07T05:53:53.882Z,4296.00
2023-05-07T05:54:53.906Z,4252.00
2023-05-07T05:55:53.958Z,4268.00
2023-05-07T05:56:53.973Z,4312.00
2023-05-07T05:57:53.996Z,4404.00
2023-05-07T05:58:54.091Z,4504.00
2023-05-07T05:59:55.471Z,4572.00
2023-05-07T06:00:54.184Z,4668.00
2023-05-07T06:01:54.175Z,4764.00
2023-05-07T06:02:54.193Z,4872.00
2023-05-07T06:03:54.175Z,4980.00
2023-05-07T06:04:54.232Z,5008.00
2023-05-07T06:05:54.229Z,5016.00
2023-05-07T06:06:54.261Z,4940.00
2023-05-07T06:07:54.286Z,4824.00
2023-05-07T06:08:54.321Z,4732.00
2023-05-07T06:09:54.346Z,4660.00
2023-05-07T06:10:54.386Z,4600.00
2023-05-07T06:11:54.412Z,4620.00
2023-05-07T06:12:54.451Z,4720.00
2023-05-07T06:13:54.468Z,4940.00
2023-05-07T06:14:54.498Z,5288.00
2023-05-07T06:15:54.523Z,5888.00
2023-05-07T06:16:54.671Z,7788.00
2023-05-07T06:17:54.627Z,5860.00
2023-05-07T06:18:54.612Z,5712.00
2023-05-07T06:19:54.642Z,5720.00
2023-05-07T06:20:54.670Z,5836.00
2023-05-07T06:21:54.700Z,6016.00
2023-05-07T06:22:54.745Z,6176.00
2023-05-07T06:23:54.761Z,6252.00
2023-05-07T06:24:54.799Z,6284.00
2023-05-07T06:25:54.848Z,6272.00
2023-05-07T06:26:54.872Z,6328.00
2023-05-07T06:27:54.880Z,6604.00
2023-05-07T06:28:54.912Z,7016.00
2023-05-07T06:29:54.937Z,7088.00
2023-05-07T06:30:54.971Z,7388.00
2023-05-07T06:31:55.123Z,7740.00
2023-05-07T06:32:55.241Z,8112.00
2023-05-07T06:33:55.320Z,8452.00
2023-05-07T06:34:55.087Z,8736.00
2023-05-07T06:35:55.118Z,9036.00
2023-05-07T06:36:55.151Z,9616.00
2023-05-07T06:37:55.178Z,9640.00
2023-05-07T06:38:55.209Z,9696.00
2023-05-07T06:39:55.244Z,9836.00
2023-05-07T06:40:55.278Z,10076.00
2023-05-07T06:41:55.301Z,10512.00
2023-05-07T06:42:55.334Z,11140.00
2023-05-07T06:43:55.357Z,13468.00
2023-05-07T06:44:55.390Z,13736.00
2023-05-07T06:45:55.421Z,12648.00
2023-05-07T06:46:56.258Z,12356.00
2023-05-07T06:48:49.164Z,13672.00
2023-05-07T06:49:49.168Z,13648.00
2023-05-07T06:50:49.202Z,13656.00
2023-05-07T06:51:49.225Z,13864.00
2023-05-07T06:52:49.253Z,14160.00
2023-05-07T06:53:49.281Z,14444.00
2023-05-07T06:54:49.310Z,13936.00
2023-05-07T06:55:49.347Z,13660.00
2023-05-07T06:56:49.380Z,13672.00
2023-05-07T06:57:49.412Z,13940.00
2023-05-07T06:58:49.431Z,15504.00
2023-05-07T06:59:49.467Z,20768.00
2023-05-07T07:00:49.497Z,19136.00
2023-05-07T07:01:49.582Z,18624.00
2023-05-07T07:02:52.255Z,31008.00
2023-05-07T07:03:49.587Z,35904.00
2023-05-07T07:04:49.680Z,36736.00
2023-05-07T07:05:49.677Z,36800.00
2023-05-07T07:06:49.683Z,42592.00
2023-05-07T07:07:49.724Z,26400.00
2023-05-07T07:08:49.751Z,26016.00
2023-05-07T07:09:49.771Z,27424.00
2023-05-07T07:10:49.821Z,24672.00
2023-05-07T07:11:49.835Z,25792.00
2023-05-07T07:12:50.303Z,26048.00
2023-05-07T07:13:49.894Z,28320.00
2023-05-07T07:14:49.943Z,25344.00
2023-05-07T07:15:49.989Z,26176.00
2023-05-07T07:16:49.987Z,31712.00
2023-05-07T07:17:50.106Z,38720.00
2023-05-07T07:18:50.050Z,33952.00
2023-05-07T07:19:50.103Z,24768.00
2023-05-07T07:20:50.207Z,20576.00
2023-05-07T07:21:50.166Z,21216.00
2023-05-07T07:22:50.184Z,21280.00
2023-05-07T07:23:50.214Z,20352.00
2023-05-07T07:24:50.245Z,21568.00
2023-05-07T07:25:50.280Z,21632.00
2023-05-07T07:26:50.336Z,18560.00
2023-05-07T07:27:50.355Z,18080.00
2023-05-07T07:28:50.371Z,19232.00
2023-05-07T07:29:50.412Z,20352.00
2023-05-07T07:30:50.439Z,40000.00
2023-05-07T07:31:50.563Z,20512.00
2023-05-07T07:32:50.531Z,22432.00
2023-05-07T07:33:52.326Z,21888.00
2023-05-07T07:34:50.567Z,26368.00
2023-05-07T07:35:50.600Z,40896.00
2023-05-07T07:36:50.831Z,25152.00
2023-05-07T07:37:50.666Z,25088.00
2023-05-07T07:38:50.703Z,76512.00
2023-05-07T07:39:50.730Z,34304.00
2023-05-07T07:40:50.767Z,34848.00
2023-05-07T07:41:50.798Z,82432.00
2023-05-07T07:42:50.835Z,68224.00
2023-05-07T07:43:50.863Z,57664.00
2023-05-07T07:44:50.898Z,40352.00
2023-05-07T07:45:50.936Z,77152.00
2023-05-07T07:46:51.004Z,53856.00
2023-05-07T07:47:51.048Z,61824.00
2023-05-07T07:49:34.594Z,71520.00
2023-05-07T07:50:44.191Z,69248.00
2023-05-07T07:51:33.646Z,68736.00
2023-05-07T07:52:33.773Z,77824.00
2023-05-07T07:53:33.716Z,73408.00
2023-05-07T07:54:33.767Z,69600.00
2023-05-07T07:55:33.795Z,69248.00
2023-05-07T07:56:33.838Z,75040.00
2023-05-07T07:57:33.871Z,76928.00
2023-05-07T07:59:33.933Z,79328.00
2023-05-07T08:00:33.963Z,77568.00
2023-05-07T08:01:34.204Z,77600.00
2023-05-07T08:02:34.678Z,73824.00
2023-05-07T08:04:31.791Z,70592.00
2023-05-07T08:05:31.705Z,71488.00
2023-05-07T08:06:31.740Z,65152.00
2023-05-07T08:08:14.355Z,44800.00
2023-05-07T08:09:14.375Z,45088.00
2023-05-07T08:10:14.413Z,25248.00
2023-05-07T08:11:14.457Z,22528.00
2023-05-07T08:12:14.489Z,22400.00
2023-05-07T08:13:14.563Z,20480.00
2023-05-07T08:14:14.775Z,19456.00
2023-05-07T08:15:14.624Z,18560.00
2023-05-07T08:17:15.008Z,19488.00
2023-05-07T08:22:14.889Z,17280.00
2023-05-07T08:24:15.034Z,23136.00
2023-05-07T08:25:14.980Z,19520.00
2023-05-07T08:26:15.014Z,17408.00
2023-05-07T08:27:15.158Z,17600.00
2023-05-07T08:29:15.119Z,16864.00
2023-05-07T08:30:15.150Z,16832.00
2023-05-07T08:31:16.284Z,17856.00
2023-05-07T08:32:15.215Z,18912.00
2023-05-07T08:34:15.280Z,16864.00
2023-05-07T08:35:15.337Z,16300.00
2023-05-07T08:36:15.349Z,15828.00
2023-05-07T08:37:15.384Z,15168.00
2023-05-07T08:38:15.425Z,14588.00
2023-05-07T08:39:15.453Z,13752.00
2023-05-07T08:41:18.188Z,12288.00
2023-05-07T08:42:18.142Z,11864.00
2023-05-07T08:43:18.168Z,11800.00
2023-05-07T08:44:18.197Z,11828.00
2023-05-07T08:45:20.866Z,11856.00
2023-05-07T08:46:18.285Z,11980.00
2023-05-07T08:47:18.302Z,13224.00
2023-05-07T08:48:18.344Z,16768.00
2023-05-07T08:49:18.360Z,17152.00
2023-05-07T08:50:18.393Z,19136.00
2023-05-07T08:52:00.980Z,21408.00
2023-05-07T08:53:01.053Z,22880.00
2023-05-07T08:54:01.049Z,19840.00
2023-05-07T08:55:01.100Z,19744.00
2023-05-07T08:56:01.139Z,20064.00
2023-05-07T08:57:01.173Z,20896.00
2023-05-07T08:58:01.188Z,19552.00
2023-05-07T08:59:01.229Z,18272.00
2023-05-07T09:00:01.257Z,17280.00
2023-05-07T09:01:01.278Z,16268.00
2023-05-07T09:02:01.429Z,17120.00
2023-05-07T09:03:01.408Z,30528.00
2023-05-07T09:05:01.624Z,17696.00
2023-05-07T09:06:01.448Z,28448.00
2023-05-07T09:07:01.711Z,27104.00
2023-05-07T09:08:01.530Z,22048.00
2023-05-07T09:09:01.581Z,16476.00
2023-05-07T09:10:01.909Z,15644.00
2023-05-07T09:11:01.655Z,18400.00
2023-05-07T09:12:01.667Z,22112.00
2023-05-07T09:14:29.442Z,21216.00
2023-05-07T09:15:29.407Z,20544.00
2023-05-07T09:16:29.470Z,19456.00
2023-05-07T09:17:29.505Z,18304.00
2023-05-07T09:18:29.513Z,21344.00
2023-05-07T09:19:29.519Z,21632.00
2023-05-07T09:20:29.555Z,20640.00
2023-05-07T09:21:30.317Z,16264.00
2023-05-07T09:22:29.634Z,14856.00
2023-05-07T09:23:29.663Z,15620.00
2023-05-07T09:24:29.699Z,16100.00
2023-05-07T09:25:29.740Z,16608.00
2023-05-07T09:27:12.339Z,18560.00
2023-05-07T09:28:12.359Z,18464.00
2023-05-07T09:29:12.405Z,17664.00
2023-05-07T09:30:12.525Z,17568.00
2023-05-07T09:31:12.554Z,17984.00
2023-05-07T09:32:12.561Z,18816.00
2023-05-07T09:33:12.532Z,20640.00
2023-05-07T09:34:12.571Z,21056.00
2023-05-07T09:35:12.849Z,21792.00
2023-05-07T09:36:12.643Z,26496.00
2023-05-07T09:37:12.675Z,25376.00
2023-05-07T09:38:12.708Z,24640.00
2023-05-07T09:39:12.754Z,24768.00
2023-05-07T09:40:12.778Z,26016.00
2023-05-07T09:41:12.810Z,26624.00
2023-05-07T09:42:12.849Z,27040.00
2023-05-07T09:43:12.947Z,24864.00
2023-05-07T09:44:12.919Z,23616.00
2023-05-07T09:45:13.159Z,24576.00
2023-05-07T09:46:13.189Z,27648.00
2023-05-07T09:47:13.030Z,28416.00
2023-05-07T09:48:13.061Z,27392.00
2023-05-07T09:49:13.096Z,24704.00
2023-05-07T09:50:13.135Z,24864.00
2023-05-07T09:51:15.784Z,25600.00
2023-05-07T09:52:13.402Z,26592.00
2023-05-07T09:53:13.238Z,27808.00
2023-05-07T09:54:15.888Z,26720.00
2023-05-07T09:55:13.533Z,27072.00
2023-05-07T09:56:13.355Z,27392.00
2023-05-07T09:57:13.374Z,25856.00
2023-05-07T09:58:16.051Z,24736.00
2023-05-07T09:59:13.454Z,23200.00
2023-05-07T10:00:13.487Z,21440.00
2023-05-07T10:01:13.690Z,19936.00
2023-05-07T10:02:13.587Z,18688.00
2023-05-07T10:03:13.680Z,17984.00
2023-05-07T10:04:13.659Z,17216.00
2023-05-07T10:05:13.808Z,15524.00
2023-05-07T10:06:13.706Z,15360.00
2023-05-07T10:07:13.738Z,16480.00
2023-05-07T10:08:13.780Z,15872.00
2023-05-07T10:09:13.815Z,16416.00
2023-05-07T10:10:13.853Z,14492.00
2023-05-07T10:11:13.888Z,15480.00
2023-05-07T10:12:13.927Z,16448.00
2023-05-07T10:13:14.041Z,15628.00
2023-05-07T10:14:14.002Z,17216.00
2023-05-07T10:15:14.186Z,17440.00
2023-05-07T10:16:14.071Z,17696.00
2023-05-07T10:17:14.128Z,17472.00
2023-05-07T10:18:14.359Z,17504.00
2023-05-07T10:19:14.183Z,16928.00
2023-05-07T10:20:14.215Z,16448.00
2023-05-07T10:21:14.259Z,15692.00
2023-05-07T10:22:14.293Z,15320.00
2023-05-07T10:23:14.329Z,14896.00
2023-05-07T10:24:14.361Z,14564.00
2023-05-07T10:25:14.571Z,14144.00
2023-05-07T10:26:14.435Z,14032.00
2023-05-07T10:27:14.470Z,14304.00
2023-05-07T10:28:14.506Z,14048.00
2023-05-07T10:29:14.541Z,13832.00
2023-05-07T10:30:14.636Z,16064.00
2023-05-07T10:31:14.637Z,15004.00
2023-05-07T10:32:14.655Z,14828.00
2023-05-07T10:33:14.747Z,13524.00
2023-05-07T10:34:14.761Z,13256.00
2023-05-07T10:35:14.754Z,13272.00
2023-05-07T10:36:14.791Z,13852.00
2023-05-07T10:37:14.824Z,16192.00
2023-05-07T10:38:14.866Z,17248.00
2023-05-07T10:39:14.895Z,15776.00
2023-05-07T10:40:15.025Z,16672.00
2023-05-07T10:41:14.967Z,16320.00
2023-05-07T10:42:15.008Z,17088.00
2023-05-07T10:43:15.049Z,17024.00
2023-05-07T10:44:15.073Z,16544.00
2023-05-07T10:45:15.135Z,16480.00
2023-05-07T10:46:15.188Z,14528.00
2023-05-07T10:47:15.176Z,15424.00
2023-05-07T10:49:15.252Z,13380.00
2023-05-07T10:50:15.377Z,13016.00
2023-05-07T10:51:15.322Z,12412.00
2023-05-07T10:52:15.358Z,11968.00
2023-05-07T10:53:15.392Z,11528.00
2023-05-07T10:54:15.429Z,11256.00
2023-05-07T10:55:15.462Z,9812.00
2023-05-07T10:56:15.498Z,10128.00
2023-05-07T10:57:15.533Z,9572.00
2023-05-07T10:58:30.248Z,9780.00
2023-05-07T10:59:15.602Z,10964.00
2023-05-07T11:00:18.348Z,10568.00
2023-05-07T11:01:15.755Z,10324.00
2023-05-07T11:02:15.809Z,11464.00
2023-05-07T11:03:15.744Z,12892.00
2023-05-07T11:04:15.860Z,12700.00
2023-05-07T11:05:15.873Z,12124.00
2023-05-07T11:06:16.051Z,11992.00
2023-05-07T11:07:15.882Z,11932.00
2023-05-07T11:08:15.917Z,12208.00
2023-05-07T11:09:15.952Z,12072.00
2023-05-07T11:10:16.014Z,12056.00
2023-05-07T11:11:16.023Z,12992.00
2023-05-07T11:12:16.064Z,12712.00
2023-05-07T11:13:16.142Z,13492.00
2023-05-07T11:14:16.162Z,13740.00
2023-05-07T11:15:16.162Z,13268.00
2023-05-07T11:16:16.250Z,13488.00
2023-05-07T11:17:16.238Z,14424.00
2023-05-07T11:18:16.278Z,14512.00
2023-05-07T11:19:16.303Z,13768.00
2023-05-07T11:20:16.341Z,14720.00
2023-05-07T11:21:16.372Z,14912.00
2023-05-07T11:22:16.427Z,14380.00
2023-05-07T11:23:16.440Z,15360.00
2023-05-07T11:24:16.489Z,15744.00
2023-05-07T11:25:16.522Z,16384.00
2023-05-07T11:26:16.553Z,16096.00
2023-05-07T11:27:16.587Z,16896.00
2023-05-07T11:28:16.617Z,17056.00
2023-05-07T11:29:17.820Z,16576.00
2023-05-07T11:30:16.686Z,16160.00
2023-05-07T11:31:16.752Z,15136.00
2023-05-07T11:32:16.759Z,14216.00
2023-05-07T11:33:16.813Z,13488.00
2023-05-07T11:34:16.829Z,12588.00
2023-05-07T11:35:16.866Z,12172.00
2023-05-07T11:36:16.895Z,11960.00
2023-05-07T11:37:16.931Z,11516.00
2023-05-07T11:38:17.070Z,11296.00
2023-05-07T11:39:17.000Z,11352.00
2023-05-07T11:40:17.050Z,11512.00
2023-05-07T11:41:17.090Z,11788.00
2023-05-07T11:42:17.105Z,11768.00
2023-05-07T11:43:17.178Z,11852.00
2023-05-07T11:44:17.183Z,11968.00
2023-05-07T11:45:17.208Z,12236.00
2023-05-07T11:46:17.270Z,12572.00
2023-05-07T11:47:17.279Z,12444.00
2023-05-07T11:48:17.334Z,12500.00
2023-05-07T11:49:17.347Z,12336.00
2023-05-07T11:50:17.392Z,11996.00
2023-05-07T11:51:17.415Z,11672.00
2023-05-07T11:52:17.453Z,11388.00
2023-05-07T11:53:17.488Z,11064.00
2023-05-07T11:54:17.540Z,10768.00
2023-05-07T11:55:17.552Z,10484.00
2023-05-07T11:56:17.595Z,10272.00
2023-05-07T11:57:17.637Z,10156.00
2023-05-07T11:58:17.665Z,10092.00
2023-05-07T11:59:17.706Z,10028.00
2023-05-07T12:00:17.729Z,9928.00
2023-05-07T12:01:17.757Z,9812.00
2023-05-07T12:02:17.862Z,9672.00
2023-05-07T12:03:18.218Z,9468.00
2023-05-07T12:04:17.936Z,9152.00
2023-05-07T12:05:17.903Z,8756.00
2023-05-07T12:06:17.940Z,8356.00
2023-05-07T12:07:17.975Z,7988.00
2023-05-07T12:08:17.997Z,7704.00
2023-05-07T12:14:22.777Z,7112.00
2023-05-07T12:15:22.780Z,7080.00
2023-05-07T12:16:22.862Z,7068.00
2023-05-07T12:17:22.923Z,7096.00
2023-05-07T12:18:22.891Z,7140.00
2023-05-07T12:19:22.919Z,7192.00
2023-05-07T12:20:22.946Z,7200.00
2023-05-07T12:21:22.990Z,7180.00
2023-05-07T12:22:23.019Z,7216.00
2023-05-07T12:23:23.065Z,7276.00
2023-05-07T12:25:23.128Z,7408.00
2023-05-07T12:26:23.468Z,7364.00
2023-05-07T12:27:23.903Z,7200.00
2023-05-07T12:28:23.212Z,7024.00
2023-05-07T12:29:25.885Z,6836.00
2023-05-07T12:32:49.231Z,6324.00
2023-05-07T12:33:49.200Z,6288.00
2023-05-07T12:34:49.234Z,6284.00
2023-05-07T12:35:49.271Z,6236.00
2023-05-07T12:36:49.301Z,6136.00
2023-05-07T12:37:49.336Z,5992.00
2023-05-07T12:38:49.364Z,5828.00
2023-05-07T12:39:49.441Z,5680.00
2023-05-07T12:40:49.429Z,5540.00
2023-05-07T12:41:49.467Z,5428.00
2023-05-07T12:42:49.501Z,5380.00
2023-05-07T12:43:49.531Z,5384.00
2023-05-07T12:44:49.582Z,5444.00
2023-05-07T12:45:49.600Z,5540.00
2023-05-07T12:46:49.789Z,5660.00
2023-05-07T12:47:49.703Z,5788.00
2023-05-07T12:48:49.695Z,5892.00
2023-05-07T12:49:49.734Z,5952.00
2023-05-07T12:50:49.772Z,5952.00
2023-05-07T12:51:50.604Z,5924.00
2023-05-07T12:52:49.830Z,5884.00
2023-05-07T12:53:49.859Z,5856.00
2023-05-07T12:54:49.913Z,5816.00
2023-05-07T12:55:49.931Z,5764.00
2023-05-07T12:56:49.972Z,5756.00
2023-05-07T12:57:50.003Z,5820.00
2023-05-07T12:58:50.046Z,5904.00